sensor_id;sensor_type;location;lat;lon;timestamp;P1;durP1;ratioP1;P2;durP2;ratioP2
13868;SDS011;7004;48.206;16.402;2022-07-10T00:00:43;2.97;;;2.20;;
13868;SDS011;7004;48.206;16.402;2022-07-10T00:03:09;2.60;;;2.03;;
13868;SDS011;7004;48.206;16.402;2022-07-10T00:05:35;4.27;;;2.10;;
13868;SDS011;7004;48.206;16.402;2022-07-10T00:08:02;2.30;;;2.10;;
13868;SDS011;7004;48.206;16.402;2022-07-10T00:10:28;2.70;;;2.10;;
13868;SDS011;7004;48.206;16.402;2022-07-10T00:12:55;2.83;;;2.13;;
13868;SDS011;7004;48.206;16.402;2022-07-10T00:15:21;4.13;;;2.47;;
13868;SDS011;7004;48.206;16.402;2022-07-10T00:17:48;3.13;;;2.20;;
13868;SDS011;7004;48.206;16.402;2022-07-10T00:20:15;3.67;;;2.23;;
13868;SDS011;7004;48.206;16.402;2022-07-10T00:22:41;2.60;;;2.37;;
13868;SDS011;7004;48.206;16.402;2022-07-10T00:25:11;3.20;;;2.03;;
13868;SDS011;7004;48.206;16.402;2022-07-10T00:27:39;2.87;;;2.27;;
13868;SDS011;7004;48.206;16.402;2022-07-10T00:30:07;2.50;;;2.00;;
13868;SDS011;7004;48.206;16.402;2022-07-10T00:32:35;3.27;;;2.17;;
13868;SDS011;7004;48.206;16.402;2022-07-10T00:35:02;2.87;;;2.37;;
13868;SDS011;7004;48.206;16.402;2022-07-10T00:37:38;2.73;;;2.50;;
13868;SDS011;7004;48.206;16.402;2022-07-10T00:40:05;2.70;;;2.27;;
13868;SDS011;7004;48.206;16.402;2022-07-10T00:42:31;3.40;;;2.30;;
13868;SDS011;7004;48.206;16.402;2022-07-10T00:44:59;5.20;;;2.60;;
13868;SDS011;7004;48.206;16.402;2022-07-10T00:47:25;2.30;;;2.10;;
13868;SDS011;7004;48.206;16.402;2022-07-10T00:49:51;3.17;;;2.70;;
13868;SDS011;7004;48.206;16.402;2022-07-10T00:52:17;3.77;;;2.60;;
13868;SDS011;7004;48.206;16.402;2022-07-10T00:54:45;3.27;;;2.30;;
13868;SDS011;7004;48.206;16.402;2022-07-10T00:57:16;5.93;;;2.37;;
13868;SDS011;7004;48.206;16.402;2022-07-10T00:59:46;3.67;;;2.47;;
13868;SDS011;7004;48.206;16.402;2022-07-10T01:02:15;2.50;;;2.30;;
13868;SDS011;7004;48.206;16.402;2022-07-10T01:04:42;3.13;;;2.50;;
13868;SDS011;7004;48.206;16.402;2022-07-10T01:07:13;4.37;;;2.50;;
13868;SDS011;7004;48.206;16.402;2022-07-10T01:09:42;3.07;;;2.30;;
13868;SDS011;7004;48.206;16.402;2022-07-10T01:12:10;3.40;;;2.30;;
13868;SDS011;7004;48.206;16.402;2022-07-10T01:14:38;3.93;;;2.30;;
13868;SDS011;7004;48.206;16.402;2022-07-10T01:17:06;4.57;;;2.40;;
13868;SDS011;7004;48.206;16.402;2022-07-10T01:19:34;4.07;;;2.60;;
13868;SDS011;7004;48.206;16.402;2022-07-10T01:22:00;4.57;;;2.67;;
13868;SDS011;7004;48.206;16.402;2022-07-10T01:24:27;2.73;;;2.43;;
13868;SDS011;7004;48.206;16.402;2022-07-10T01:26:53;2.90;;;2.27;;
13868;SDS011;7004;48.206;16.402;2022-07-10T01:29:20;3.47;;;2.50;;
13868;SDS011;7004;48.206;16.402;2022-07-10T01:31:48;3.90;;;2.53;;
13868;SDS011;7004;48.206;16.402;2022-07-10T01:34:14;5.83;;;2.37;;
13868;SDS011;7004;48.206;16.402;2022-07-10T01:36:40;2.83;;;2.60;;
13868;SDS011;7004;48.206;16.402;2022-07-10T01:39:07;3.03;;;2.40;;
13868;SDS011;7004;48.206;16.402;2022-07-10T01:41:34;2.33;;;2.13;;
13868;SDS011;7004;48.206;16.402;2022-07-10T01:44:01;2.90;;;2.10;;
13868;SDS011;7004;48.206;16.402;2022-07-10T01:46:27;2.77;;;2.53;;
13868;SDS011;7004;48.206;16.402;2022-07-10T01:48:55;2.47;;;2.23;;
13868;SDS011;7004;48.206;16.402;2022-07-10T01:51:21;4.33;;;2.30;;
13868;SDS011;7004;48.206;16.402;2022-07-10T01:53:48;2.97;;;2.50;;
13868;SDS011;7004;48.206;16.402;2022-07-10T01:56:14;4.97;;;2.60;;
13868;SDS011;7004;48.206;16.402;2022-07-10T01:58:42;2.63;;;2.40;;
13868;SDS011;7004;48.206;16.402;2022-07-10T02:01:11;2.83;;;2.63;;
13868;SDS011;7004;48.206;16.402;2022-07-10T02:03:38;2.77;;;2.23;;
13868;SDS011;7004;48.206;16.402;2022-07-10T02:06:23;4.00;;;2.50;;
13868;SDS011;7004;48.206;16.402;2022-07-10T02:08:50;2.80;;;2.50;;
13868;SDS011;7004;48.206;16.402;2022-07-10T02:11:16;2.53;;;2.30;;
13868;SDS011;7004;48.206;16.402;2022-07-10T02:13:42;3.70;;;2.30;;
13868;SDS011;7004;48.206;16.402;2022-07-10T02:16:08;3.57;;;2.20;;
13868;SDS011;7004;48.206;16.402;2022-07-10T02:18:36;2.50;;;2.10;;
13868;SDS011;7004;48.206;16.402;2022-07-10T02:21:03;3.37;;;2.53;;
13868;SDS011;7004;48.206;16.402;2022-07-10T02:23:29;4.63;;;2.40;;
13868;SDS011;7004;48.206;16.402;2022-07-10T02:25:56;3.17;;;2.43;;
13868;SDS011;7004;48.206;16.402;2022-07-10T02:28:22;5.47;;;2.53;;
13868;SDS011;7004;48.206;16.402;2022-07-10T02:30:48;3.50;;;2.30;;
13868;SDS011;7004;48.206;16.402;2022-07-10T02:33:14;3.30;;;2.20;;
13868;SDS011;7004;48.206;16.402;2022-07-10T02:35:40;2.97;;;2.20;;
13868;SDS011;7004;48.206;16.402;2022-07-10T02:38:06;3.97;;;2.47;;
13868;SDS011;7004;48.206;16.402;2022-07-10T02:40:32;2.80;;;2.20;;
13868;SDS011;7004;48.206;16.402;2022-07-10T02:42:58;2.57;;;2.37;;
13868;SDS011;7004;48.206;16.402;2022-07-10T02:45:24;3.13;;;2.17;;
13868;SDS011;7004;48.206;16.402;2022-07-10T02:47:50;2.40;;;2.20;;
13868;SDS011;7004;48.206;16.402;2022-07-10T02:50:16;3.53;;;2.33;;
13868;SDS011;7004;48.206;16.402;2022-07-10T02:52:42;5.03;;;2.37;;
13868;SDS011;7004;48.206;16.402;2022-07-10T02:55:08;3.43;;;2.20;;
13868;SDS011;7004;48.206;16.402;2022-07-10T02:57:35;3.33;;;2.57;;
13868;SDS011;7004;48.206;16.402;2022-07-10T03:00:01;2.33;;;2.23;;
13868;SDS011;7004;48.206;16.402;2022-07-10T03:02:31;2.53;;;2.33;;
13868;SDS011;7004;48.206;16.402;2022-07-10T03:04:57;3.73;;;2.30;;
13868;SDS011;7004;48.206;16.402;2022-07-10T03:07:23;2.87;;;2.30;;
13868;SDS011;7004;48.206;16.402;2022-07-10T03:09:50;3.63;;;2.33;;
13868;SDS011;7004;48.206;16.402;2022-07-10T03:12:16;6.00;;;2.13;;
13868;SDS011;7004;48.206;16.402;2022-07-10T03:14:42;2.43;;;2.23;;
13868;SDS011;7004;48.206;16.402;2022-07-10T03:17:09;3.23;;;2.50;;
13868;SDS011;7004;48.206;16.402;2022-07-10T03:19:34;3.30;;;2.40;;
13868;SDS011;7004;48.206;16.402;2022-07-10T03:22:01;2.57;;;2.37;;
13868;SDS011;7004;48.206;16.402;2022-07-10T03:24:27;2.87;;;2.37;;
13868;SDS011;7004;48.206;16.402;2022-07-10T03:26:53;3.53;;;2.50;;
13868;SDS011;7004;48.206;16.402;2022-07-10T03:29:19;2.37;;;2.17;;
13868;SDS011;7004;48.206;16.402;2022-07-10T03:31:45;2.70;;;2.50;;
13868;SDS011;7004;48.206;16.402;2022-07-10T03:34:12;3.53;;;2.47;;
13868;SDS011;7004;48.206;16.402;2022-07-10T03:36:38;2.83;;;2.10;;
13868;SDS011;7004;48.206;16.402;2022-07-10T03:39:04;4.93;;;2.07;;
13868;SDS011;7004;48.206;16.402;2022-07-10T03:41:30;4.40;;;2.63;;
13868;SDS011;7004;48.206;16.402;2022-07-10T03:43:56;2.70;;;2.37;;
13868;SDS011;7004;48.206;16.402;2022-07-10T03:46:22;2.93;;;2.63;;
13868;SDS011;7004;48.206;16.402;2022-07-10T03:48:48;4.07;;;2.50;;
13868;SDS011;7004;48.206;16.402;2022-07-10T03:51:14;2.83;;;2.63;;
13868;SDS011;7004;48.206;16.402;2022-07-10T03:53:41;3.93;;;2.30;;
13868;SDS011;7004;48.206;16.402;2022-07-10T03:56:07;2.87;;;2.27;;
13868;SDS011;7004;48.206;16.402;2022-07-10T03:58:33;2.77;;;2.20;;
13868;SDS011;7004;48.206;16.402;2022-07-10T04:00:59;2.57;;;2.37;;
13868;SDS011;7004;48.206;16.402;2022-07-10T04:03:25;3.20;;;2.50;;
13868;SDS011;7004;48.206;16.402;2022-07-10T04:05:51;3.73;;;2.63;;
13868;SDS011;7004;48.206;16.402;2022-07-10T04:08:17;4.53;;;2.47;;
13868;SDS011;7004;48.206;16.402;2022-07-10T04:10:43;4.27;;;2.47;;
13868;SDS011;7004;48.206;16.402;2022-07-10T04:13:09;3.33;;;2.40;;
13868;SDS011;7004;48.206;16.402;2022-07-10T04:15:35;3.30;;;2.37;;
13868;SDS011;7004;48.206;16.402;2022-07-10T04:18:01;2.50;;;2.30;;
13868;SDS011;7004;48.206;16.402;2022-07-10T04:20:27;3.87;;;2.57;;
13868;SDS011;7004;48.206;16.402;2022-07-10T04:22:53;3.60;;;2.40;;
13868;SDS011;7004;48.206;16.402;2022-07-10T04:25:19;4.70;;;2.43;;
13868;SDS011;7004;48.206;16.402;2022-07-10T04:27:45;5.47;;;2.33;;
13868;SDS011;7004;48.206;16.402;2022-07-10T04:30:11;3.23;;;2.37;;
13868;SDS011;7004;48.206;16.402;2022-07-10T04:32:41;2.40;;;2.10;;
13868;SDS011;7004;48.206;16.402;2022-07-10T04:35:07;3.10;;;2.33;;
13868;SDS011;7004;48.206;16.402;2022-07-10T04:37:33;4.90;;;2.63;;
13868;SDS011;7004;48.206;16.402;2022-07-10T04:40:00;2.67;;;2.47;;
13868;SDS011;7004;48.206;16.402;2022-07-10T04:42:26;2.57;;;2.20;;
13868;SDS011;7004;48.206;16.402;2022-07-10T04:44:52;3.00;;;2.50;;
13868;SDS011;7004;48.206;16.402;2022-07-10T04:47:18;2.50;;;2.30;;
13868;SDS011;7004;48.206;16.402;2022-07-10T04:49:45;3.03;;;2.70;;
13868;SDS011;7004;48.206;16.402;2022-07-10T04:52:10;2.27;;;2.10;;
13868;SDS011;7004;48.206;16.402;2022-07-10T04:54:36;2.97;;;2.33;;
13868;SDS011;7004;48.206;16.402;2022-07-10T04:57:02;2.50;;;2.10;;
13868;SDS011;7004;48.206;16.402;2022-07-10T04:59:29;5.77;;;2.60;;
13868;SDS011;7004;48.206;16.402;2022-07-10T05:01:55;3.43;;;2.37;;
13868;SDS011;7004;48.206;16.402;2022-07-10T05:04:21;2.67;;;2.47;;
13868;SDS011;7004;48.206;16.402;2022-07-10T05:06:47;3.97;;;2.67;;
13868;SDS011;7004;48.206;16.402;2022-07-10T05:09:13;3.47;;;2.40;;
13868;SDS011;7004;48.206;16.402;2022-07-10T05:11:39;2.87;;;2.60;;
13868;SDS011;7004;48.206;16.402;2022-07-10T05:14:05;3.30;;;2.53;;
13868;SDS011;7004;48.206;16.402;2022-07-10T05:16:32;4.13;;;2.57;;
13868;SDS011;7004;48.206;16.402;2022-07-10T05:18:58;4.07;;;2.80;;
13868;SDS011;7004;48.206;16.402;2022-07-10T05:21:24;2.60;;;2.40;;
13868;SDS011;7004;48.206;16.402;2022-07-10T05:23:50;2.93;;;2.73;;
13868;SDS011;7004;48.206;16.402;2022-07-10T05:26:17;4.80;;;2.63;;
13868;SDS011;7004;48.206;16.402;2022-07-10T05:28:43;6.97;;;3.80;;
13868;SDS011;7004;48.206;16.402;2022-07-10T05:31:09;6.70;;;2.93;;
13868;SDS011;7004;48.206;16.402;2022-07-10T05:33:35;2.57;;;2.37;;
13868;SDS011;7004;48.206;16.402;2022-07-10T05:36:03;3.27;;;2.77;;
13868;SDS011;7004;48.206;16.402;2022-07-10T05:38:30;3.00;;;2.80;;
13868;SDS011;7004;48.206;16.402;2022-07-10T05:40:56;3.67;;;2.63;;
13868;SDS011;7004;48.206;16.402;2022-07-10T05:43:22;3.60;;;2.63;;
13868;SDS011;7004;48.206;16.402;2022-07-10T05:45:48;8.67;;;2.80;;
13868;SDS011;7004;48.206;16.402;2022-07-10T05:48:14;6.17;;;3.13;;
13868;SDS011;7004;48.206;16.402;2022-07-10T05:50:40;5.10;;;3.13;;
13868;SDS011;7004;48.206;16.402;2022-07-10T05:53:06;4.37;;;2.87;;
13868;SDS011;7004;48.206;16.402;2022-07-10T05:55:32;3.63;;;2.40;;
13868;SDS011;7004;48.206;16.402;2022-07-10T05:57:58;3.87;;;2.90;;
13868;SDS011;7004;48.206;16.402;2022-07-10T06:00:25;4.73;;;2.63;;
13868;SDS011;7004;48.206;16.402;2022-07-10T06:02:51;4.27;;;2.80;;
13868;SDS011;7004;48.206;16.402;2022-07-10T06:05:17;3.73;;;2.93;;
13868;SDS011;7004;48.206;16.402;2022-07-10T06:07:43;3.60;;;2.60;;
13868;SDS011;7004;48.206;16.402;2022-07-10T06:10:09;6.27;;;3.40;;
13868;SDS011;7004;48.206;16.402;2022-07-10T06:12:36;4.93;;;3.10;;
13868;SDS011;7004;48.206;16.402;2022-07-10T06:15:03;4.13;;;2.63;;
13868;SDS011;7004;48.206;16.402;2022-07-10T06:17:31;4.53;;;3.00;;
13868;SDS011;7004;48.206;16.402;2022-07-10T06:19:57;3.40;;;3.00;;
13868;SDS011;7004;48.206;16.402;2022-07-10T06:22:23;5.00;;;2.87;;
13868;SDS011;7004;48.206;16.402;2022-07-10T06:24:56;3.07;;;2.87;;
13868;SDS011;7004;48.206;16.402;2022-07-10T06:27:31;3.37;;;2.37;;
13868;SDS011;7004;48.206;16.402;2022-07-10T06:29:57;3.23;;;2.93;;
13868;SDS011;7004;48.206;16.402;2022-07-10T06:32:25;3.10;;;2.80;;
13868;SDS011;7004;48.206;16.402;2022-07-10T06:34:52;3.67;;;2.80;;
13868;SDS011;7004;48.206;16.402;2022-07-10T06:37:19;4.43;;;3.00;;
13868;SDS011;7004;48.206;16.402;2022-07-10T06:39:46;3.10;;;2.70;;
13868;SDS011;7004;48.206;16.402;2022-07-10T06:42:16;3.23;;;2.80;;
13868;SDS011;7004;48.206;16.402;2022-07-10T06:44:42;6.83;;;2.50;;
13868;SDS011;7004;48.206;16.402;2022-07-10T06:47:13;4.93;;;2.83;;
13868;SDS011;7004;48.206;16.402;2022-07-10T06:50:01;3.67;;;2.47;;
13868;SDS011;7004;48.206;16.402;2022-07-10T06:52:30;6.73;;;2.63;;
13868;SDS011;7004;48.206;16.402;2022-07-10T06:54:58;4.10;;;2.90;;
13868;SDS011;7004;48.206;16.402;2022-07-10T06:57:28;4.97;;;2.80;;
13868;SDS011;7004;48.206;16.402;2022-07-10T06:59:54;4.60;;;2.70;;
13868;SDS011;7004;48.206;16.402;2022-07-10T07:02:20;6.10;;;2.83;;
13868;SDS011;7004;48.206;16.402;2022-07-10T07:04:46;3.43;;;2.93;;
13868;SDS011;7004;48.206;16.402;2022-07-10T07:07:13;3.17;;;2.60;;
13868;SDS011;7004;48.206;16.402;2022-07-10T07:09:39;2.80;;;2.60;;
13868;SDS011;7004;48.206;16.402;2022-07-10T07:12:07;4.90;;;2.67;;
13868;SDS011;7004;48.206;16.402;2022-07-10T07:14:34;4.30;;;2.50;;
13868;SDS011;7004;48.206;16.402;2022-07-10T07:17:01;5.00;;;2.30;;
13868;SDS011;7004;48.206;16.402;2022-07-10T07:19:37;7.50;;;2.50;;
13868;SDS011;7004;48.206;16.402;2022-07-10T07:22:23;2.30;;;2.10;;
13868;SDS011;7004;48.206;16.402;2022-07-10T07:25:08;3.20;;;2.30;;
13868;SDS011;7004;48.206;16.402;2022-07-10T07:27:36;3.27;;;2.47;;
13868;SDS011;7004;48.206;16.402;2022-07-10T07:30:07;2.30;;;2.10;;
13868;SDS011;7004;48.206;16.402;2022-07-10T07:32:37;5.27;;;2.57;;
13868;SDS011;7004;48.206;16.402;2022-07-10T07:35:04;3.63;;;2.60;;
13868;SDS011;7004;48.206;16.402;2022-07-10T07:40:18;4.23;;;2.33;;
13868;SDS011;7004;48.206;16.402;2022-07-10T07:42:48;3.77;;;2.33;;
13868;SDS011;7004;48.206;16.402;2022-07-10T07:45:16;3.43;;;2.30;;
13868;SDS011;7004;48.206;16.402;2022-07-10T07:47:43;3.33;;;2.80;;
13868;SDS011;7004;48.206;16.402;2022-07-10T07:50:14;5.63;;;2.40;;
13868;SDS011;7004;48.206;16.402;2022-07-10T07:52:47;5.73;;;2.57;;
13868;SDS011;7004;48.206;16.402;2022-07-10T07:55:14;3.67;;;2.07;;
13868;SDS011;7004;48.206;16.402;2022-07-10T07:57:43;4.33;;;2.37;;
13868;SDS011;7004;48.206;16.402;2022-07-10T08:00:10;3.07;;;2.23;;
13868;SDS011;7004;48.206;16.402;2022-07-10T08:02:39;6.10;;;2.23;;
13868;SDS011;7004;48.206;16.402;2022-07-10T08:05:06;3.70;;;2.50;;
13868;SDS011;7004;48.206;16.402;2022-07-10T08:07:34;6.10;;;2.90;;
13868;SDS011;7004;48.206;16.402;2022-07-10T08:10:05;4.67;;;3.03;;
13868;SDS011;7004;48.206;16.402;2022-07-10T08:12:38;5.93;;;3.00;;
13868;SDS011;7004;48.206;16.402;2022-07-10T08:15:10;3.53;;;2.37;;
13868;SDS011;7004;48.206;16.402;2022-07-10T08:17:37;4.33;;;3.00;;
13868;SDS011;7004;48.206;16.402;2022-07-10T08:20:04;4.57;;;2.90;;
13868;SDS011;7004;48.206;16.402;2022-07-10T08:22:33;5.73;;;3.23;;
13868;SDS011;7004;48.206;16.402;2022-07-10T08:25:00;10.67;;;3.60;;
13868;SDS011;7004;48.206;16.402;2022-07-10T08:27:26;3.10;;;2.80;;
13868;SDS011;7004;48.206;16.402;2022-07-10T08:29:52;4.70;;;3.40;;
13868;SDS011;7004;48.206;16.402;2022-07-10T08:32:18;3.63;;;2.83;;
13868;SDS011;7004;48.206;16.402;2022-07-10T08:34:46;2.47;;;2.00;;
13868;SDS011;7004;48.206;16.402;2022-07-10T08:37:13;3.80;;;1.90;;
13868;SDS011;7004;48.206;16.402;2022-07-10T08:39:39;4.37;;;1.80;;
13868;SDS011;7004;48.206;16.402;2022-07-10T08:42:06;3.40;;;1.97;;
13868;SDS011;7004;48.206;16.402;2022-07-10T08:44:35;4.97;;;2.10;;
13868;SDS011;7004;48.206;16.402;2022-07-10T08:47:02;5.07;;;1.83;;
13868;SDS011;7004;48.206;16.402;2022-07-10T08:49:30;4.10;;;2.07;;
13868;SDS011;7004;48.206;16.402;2022-07-10T08:54:33;2.73;;;2.00;;
13868;SDS011;7004;48.206;16.402;2022-07-10T08:57:01;2.73;;;1.77;;
13868;SDS011;7004;48.206;16.402;2022-07-10T08:59:29;3.13;;;1.80;;
13868;SDS011;7004;48.206;16.402;2022-07-10T09:01:55;6.77;;;2.03;;
13868;SDS011;7004;48.206;16.402;2022-07-10T09:04:23;3.47;;;1.90;;
13868;SDS011;7004;48.206;16.402;2022-07-10T09:06:51;4.30;;;1.67;;
13868;SDS011;7004;48.206;16.402;2022-07-10T09:09:19;5.67;;;2.17;;
13868;SDS011;7004;48.206;16.402;2022-07-10T09:11:46;2.23;;;1.80;;
13868;SDS011;7004;48.206;16.402;2022-07-10T09:14:13;4.30;;;2.27;;
13868;SDS011;7004;48.206;16.402;2022-07-10T09:16:42;5.50;;;1.80;;
13868;SDS011;7004;48.206;16.402;2022-07-10T09:19:18;2.33;;;1.80;;
13868;SDS011;7004;48.206;16.402;2022-07-10T09:21:50;4.50;;;2.07;;
13868;SDS011;7004;48.206;16.402;2022-07-10T09:24:35;5.90;;;2.33;;
13868;SDS011;7004;48.206;16.402;2022-07-10T09:27:02;3.10;;;2.10;;
13868;SDS011;7004;48.206;16.402;2022-07-10T09:29:30;5.77;;;2.43;;
13868;SDS011;7004;48.206;16.402;2022-07-10T09:31:58;3.63;;;2.27;;
13868;SDS011;7004;48.206;16.402;2022-07-10T09:34:39;4.20;;;2.73;;
13868;SDS011;7004;48.206;16.402;2022-07-10T09:37:23;7.23;;;2.90;;
13868;SDS011;7004;48.206;16.402;2022-07-10T09:39:58;4.07;;;2.50;;
13868;SDS011;7004;48.206;16.402;2022-07-10T09:42:33;5.30;;;2.30;;
13868;SDS011;7004;48.206;16.402;2022-07-10T09:50:30;4.47;;;2.50;;
13868;SDS011;7004;48.206;16.402;2022-07-10T09:52:59;3.03;;;2.00;;
13868;SDS011;7004;48.206;16.402;2022-07-10T09:55:27;3.67;;;2.40;;
13868;SDS011;7004;48.206;16.402;2022-07-10T09:58:00;3.53;;;2.27;;
13868;SDS011;7004;48.206;16.402;2022-07-10T10:00:35;3.37;;;2.30;;
13868;SDS011;7004;48.206;16.402;2022-07-10T10:03:03;4.57;;;2.27;;
13868;SDS011;7004;48.206;16.402;2022-07-10T10:05:34;4.23;;;2.27;;
13868;SDS011;7004;48.206;16.402;2022-07-10T10:08:19;5.80;;;2.60;;
13868;SDS011;7004;48.206;16.402;2022-07-10T10:10:56;2.37;;;2.10;;
13868;SDS011;7004;48.206;16.402;2022-07-10T10:13:24;3.13;;;2.27;;
13868;SDS011;7004;48.206;16.402;2022-07-10T10:15:57;2.83;;;2.20;;
13868;SDS011;7004;48.206;16.402;2022-07-10T10:18:24;5.30;;;2.43;;
13868;SDS011;7004;48.206;16.402;2022-07-10T10:20:52;6.43;;;2.63;;
13868;SDS011;7004;48.206;16.402;2022-07-10T10:23:20;7.67;;;2.73;;
13868;SDS011;7004;48.206;16.402;2022-07-10T10:25:49;4.97;;;2.17;;
13868;SDS011;7004;48.206;16.402;2022-07-10T10:28:20;4.67;;;2.37;;
13868;SDS011;7004;48.206;16.402;2022-07-10T10:30:57;5.97;;;2.20;;
13868;SDS011;7004;48.206;16.402;2022-07-10T10:35:58;5.77;;;2.53;;
13868;SDS011;7004;48.206;16.402;2022-07-10T10:38:25;5.17;;;2.40;;
13868;SDS011;7004;48.206;16.402;2022-07-10T10:41:26;3.20;;;2.03;;
13868;SDS011;7004;48.206;16.402;2022-07-10T10:46:52;9.27;;;2.67;;
13868;SDS011;7004;48.206;16.402;2022-07-10T10:49:26;5.57;;;2.67;;
13868;SDS011;7004;48.206;16.402;2022-07-10T10:52:16;4.47;;;2.53;;
13868;SDS011;7004;48.206;16.402;2022-07-10T10:57:43;4.50;;;2.00;;
13868;SDS011;7004;48.206;16.402;2022-07-10T11:00:11;3.83;;;2.67;;
13868;SDS011;7004;48.206;16.402;2022-07-10T11:02:42;3.17;;;2.10;;
13868;SDS011;7004;48.206;16.402;2022-07-10T11:07:53;2.73;;;1.97;;
13868;SDS011;7004;48.206;16.402;2022-07-10T11:10:34;3.60;;;2.47;;
13868;SDS011;7004;48.206;16.402;2022-07-10T11:15:43;4.13;;;2.23;;
13868;SDS011;7004;48.206;16.402;2022-07-10T11:18:15;6.23;;;1.70;;
13868;SDS011;7004;48.206;16.402;2022-07-10T11:20:56;4.30;;;2.00;;
13868;SDS011;7004;48.206;16.402;2022-07-10T11:29:17;3.37;;;1.70;;
13868;SDS011;7004;48.206;16.402;2022-07-10T11:31:51;7.20;;;1.57;;
13868;SDS011;7004;48.206;16.402;2022-07-10T11:34:19;2.70;;;1.67;;
13868;SDS011;7004;48.206;16.402;2022-07-10T11:36:48;5.77;;;1.80;;
13868;SDS011;7004;48.206;16.402;2022-07-10T11:39:15;4.30;;;1.97;;
13868;SDS011;7004;48.206;16.402;2022-07-10T11:41:45;2.53;;;1.73;;
13868;SDS011;7004;48.206;16.402;2022-07-10T11:44:15;5.43;;;1.70;;
13868;SDS011;7004;48.206;16.402;2022-07-10T11:46:42;4.10;;;1.63;;
13868;SDS011;7004;48.206;16.402;2022-07-10T11:49:10;2.37;;;1.40;;
13868;SDS011;7004;48.206;16.402;2022-07-10T11:51:39;3.73;;;1.70;;
13868;SDS011;7004;48.206;16.402;2022-07-10T11:54:16;2.80;;;1.67;;
13868;SDS011;7004;48.206;16.402;2022-07-10T11:56:50;3.73;;;1.57;;
13868;SDS011;7004;48.206;16.402;2022-07-10T11:59:18;3.23;;;1.97;;
13868;SDS011;7004;48.206;16.402;2022-07-10T12:01:51;5.53;;;2.33;;
13868;SDS011;7004;48.206;16.402;2022-07-10T12:04:21;4.47;;;1.70;;
13868;SDS011;7004;48.206;16.402;2022-07-10T12:06:52;3.17;;;1.80;;
13868;SDS011;7004;48.206;16.402;2022-07-10T12:09:20;4.53;;;1.80;;
13868;SDS011;7004;48.206;16.402;2022-07-10T12:14:48;4.37;;;1.80;;
13868;SDS011;7004;48.206;16.402;2022-07-10T12:17:14;3.03;;;1.60;;
13868;SDS011;7004;48.206;16.402;2022-07-10T12:19:41;4.93;;;1.70;;
13868;SDS011;7004;48.206;16.402;2022-07-10T12:22:08;3.53;;;1.40;;
13868;SDS011;7004;48.206;16.402;2022-07-10T12:24:35;5.23;;;1.80;;
13868;SDS011;7004;48.206;16.402;2022-07-10T12:27:01;2.30;;;1.67;;
13868;SDS011;7004;48.206;16.402;2022-07-10T12:29:30;3.20;;;1.73;;
13868;SDS011;7004;48.206;16.402;2022-07-10T12:32:00;2.30;;;1.47;;
13868;SDS011;7004;48.206;16.402;2022-07-10T12:34:39;2.43;;;1.30;;
13868;SDS011;7004;48.206;16.402;2022-07-10T12:37:15;1.73;;;1.50;;
13868;SDS011;7004;48.206;16.402;2022-07-10T12:39:46;4.17;;;1.60;;
13868;SDS011;7004;48.206;16.402;2022-07-10T12:42:28;2.03;;;1.47;;
13868;SDS011;7004;48.206;16.402;2022-07-10T12:45:11;5.60;;;1.90;;
13868;SDS011;7004;48.206;16.402;2022-07-10T12:47:45;4.13;;;1.63;;
13868;SDS011;7004;48.206;16.402;2022-07-10T12:50:14;3.77;;;1.43;;
13868;SDS011;7004;48.206;16.402;2022-07-10T12:52:42;5.20;;;1.63;;
13868;SDS011;7004;48.206;16.402;2022-07-10T12:55:13;3.03;;;1.53;;
13868;SDS011;7004;48.206;16.402;2022-07-10T13:00:22;2.03;;;1.43;;
13868;SDS011;7004;48.206;16.402;2022-07-10T13:03:17;3.17;;;1.30;;
13868;SDS011;7004;48.206;16.402;2022-07-10T13:05:43;1.83;;;1.30;;
13868;SDS011;7004;48.206;16.402;2022-07-10T13:08:16;5.10;;;1.93;;
13868;SDS011;7004;48.206;16.402;2022-07-10T13:13:26;2.77;;;1.60;;
13868;SDS011;7004;48.206;16.402;2022-07-10T13:15:53;1.63;;;1.20;;
13868;SDS011;7004;48.206;16.402;2022-07-10T13:18:21;7.33;;;1.80;;
13868;SDS011;7004;48.206;16.402;2022-07-10T13:20:50;2.00;;;1.40;;
13868;SDS011;7004;48.206;16.402;2022-07-10T13:23:18;4.50;;;1.43;;
13868;SDS011;7004;48.206;16.402;2022-07-10T13:25:48;5.13;;;1.60;;
13868;SDS011;7004;48.206;16.402;2022-07-10T13:28:15;2.57;;;1.30;;
13868;SDS011;7004;48.206;16.402;2022-07-10T13:30:44;2.63;;;1.63;;
13868;SDS011;7004;48.206;16.402;2022-07-10T13:33:11;2.73;;;1.50;;
13868;SDS011;7004;48.206;16.402;2022-07-10T13:35:37;3.87;;;1.50;;
13868;SDS011;7004;48.206;16.402;2022-07-10T13:38:05;5.57;;;1.80;;
13868;SDS011;7004;48.206;16.402;2022-07-10T13:40:34;3.30;;;1.57;;
13868;SDS011;7004;48.206;16.402;2022-07-10T13:43:02;6.50;;;1.83;;
13868;SDS011;7004;48.206;16.402;2022-07-10T13:45:29;5.50;;;1.83;;
13868;SDS011;7004;48.206;16.402;2022-07-10T13:48:02;4.53;;;1.60;;
13868;SDS011;7004;48.206;16.402;2022-07-10T13:50:29;3.77;;;1.10;;
13868;SDS011;7004;48.206;16.402;2022-07-10T13:52:56;5.13;;;1.70;;
13868;SDS011;7004;48.206;16.402;2022-07-10T13:55:22;5.10;;;1.30;;
13868;SDS011;7004;48.206;16.402;2022-07-10T13:57:49;3.73;;;1.60;;
13868;SDS011;7004;48.206;16.402;2022-07-10T14:00:18;4.30;;;1.60;;
13868;SDS011;7004;48.206;16.402;2022-07-10T14:02:44;2.63;;;1.30;;
13868;SDS011;7004;48.206;16.402;2022-07-10T14:05:10;2.97;;;1.47;;
13868;SDS011;7004;48.206;16.402;2022-07-10T14:07:37;2.43;;;1.43;;
13868;SDS011;7004;48.206;16.402;2022-07-10T14:10:03;2.27;;;1.70;;
13868;SDS011;7004;48.206;16.402;2022-07-10T14:12:31;5.57;;;1.80;;
13868;SDS011;7004;48.206;16.402;2022-07-10T14:14:57;3.63;;;1.60;;
13868;SDS011;7004;48.206;16.402;2022-07-10T14:17:24;2.07;;;1.20;;
13868;SDS011;7004;48.206;16.402;2022-07-10T14:19:50;2.47;;;1.83;;
13868;SDS011;7004;48.206;16.402;2022-07-10T14:22:16;2.67;;;1.50;;
13868;SDS011;7004;48.206;16.402;2022-07-10T14:24:42;3.73;;;1.87;;
13868;SDS011;7004;48.206;16.402;2022-07-10T14:27:08;5.37;;;1.40;;
13868;SDS011;7004;48.206;16.402;2022-07-10T14:29:36;3.87;;;1.57;;
13868;SDS011;7004;48.206;16.402;2022-07-10T14:32:02;3.23;;;1.43;;
13868;SDS011;7004;48.206;16.402;2022-07-10T14:34:29;2.83;;;1.63;;
13868;SDS011;7004;48.206;16.402;2022-07-10T14:36:55;3.70;;;1.40;;
13868;SDS011;7004;48.206;16.402;2022-07-10T14:39:21;2.07;;;1.40;;
13868;SDS011;7004;48.206;16.402;2022-07-10T14:41:47;2.17;;;1.60;;
13868;SDS011;7004;48.206;16.402;2022-07-10T14:44:14;3.40;;;1.50;;
13868;SDS011;7004;48.206;16.402;2022-07-10T14:46:43;2.53;;;1.50;;
13868;SDS011;7004;48.206;16.402;2022-07-10T14:49:09;2.87;;;1.33;;
13868;SDS011;7004;48.206;16.402;2022-07-10T14:51:36;5.70;;;1.53;;
13868;SDS011;7004;48.206;16.402;2022-07-10T14:54:04;2.03;;;1.30;;
13868;SDS011;7004;48.206;16.402;2022-07-10T14:56:32;3.53;;;1.50;;
13868;SDS011;7004;48.206;16.402;2022-07-10T14:58:58;1.40;;;1.30;;
13868;SDS011;7004;48.206;16.402;2022-07-10T15:01:24;3.27;;;1.47;;
13868;SDS011;7004;48.206;16.402;2022-07-10T15:03:51;2.10;;;1.50;;
13868;SDS011;7004;48.206;16.402;2022-07-10T15:06:18;6.37;;;1.40;;
13868;SDS011;7004;48.206;16.402;2022-07-10T15:08:44;3.53;;;1.50;;
13868;SDS011;7004;48.206;16.402;2022-07-10T15:11:10;3.97;;;1.80;;
13868;SDS011;7004;48.206;16.402;2022-07-10T15:13:36;4.70;;;1.70;;
13868;SDS011;7004;48.206;16.402;2022-07-10T15:16:02;7.07;;;2.03;;
13868;SDS011;7004;48.206;16.402;2022-07-10T15:18:29;3.37;;;1.60;;
13868;SDS011;7004;48.206;16.402;2022-07-10T15:20:55;1.53;;;1.40;;
13868;SDS011;7004;48.206;16.402;2022-07-10T15:23:23;2.63;;;1.33;;
13868;SDS011;7004;48.206;16.402;2022-07-10T15:25:51;2.90;;;1.40;;
13868;SDS011;7004;48.206;16.402;2022-07-10T15:28:17;1.90;;;1.70;;
13868;SDS011;7004;48.206;16.402;2022-07-10T15:30:43;3.00;;;1.43;;
13868;SDS011;7004;48.206;16.402;2022-07-10T15:33:10;4.63;;;1.50;;